West Point, Iowa
Current Conditions -  °F | °C
As of 6:50 AM on Saturday 25 Oct 2014 (Local Time) from KFSW Reporting Station
Moderate Fog Moderate Fog  
Wind Chill: 52°   Ceiling: 100
Heat Index: 52°   Visibility: 0.25mi
Dew Point: 52°   Wind: 5mph
Humidity: 100%   Direction: 190°S
Pressure: 29.99"   Gusts: NA
Location:  40.72°N, 91.45°W
Report Text: KFSW 251150Z AUTO 19004KT 1/4SM FG OVC001 11/11 A2999 RMK AO2
Loading
Personal Weather Stations






























Interactive Weather Map
Tropical Storm Tracking
New forecast layout! Learn more

10-Day Weather Forecast

Advertisements
Track Severe Weather on mobile